sensor_id;sensor_type;location;lat;lon;timestamp;P1;durP1;ratioP1;P2;durP2;ratioP2
4452;SDS011;2239;48.152;11.584;2023-03-22T00:01:26;7.63;;;2.30;;
4452;SDS011;2239;48.152;11.584;2023-03-22T00:03:56;3.30;;;1.90;;
4452;SDS011;2239;48.152;11.584;2023-03-22T00:06:22;4.70;;;2.23;;
4452;SDS011;2239;48.152;11.584;2023-03-22T00:08:49;2.10;;;1.57;;
4452;SDS011;2239;48.152;11.584;2023-03-22T00:11:16;5.40;;;2.40;;
4452;SDS011;2239;48.152;11.584;2023-03-22T00:13:43;5.63;;;2.30;;
4452;SDS011;2239;48.152;11.584;2023-03-22T00:16:10;4.87;;;2.67;;
4452;SDS011;2239;48.152;11.584;2023-03-22T00:18:37;4.40;;;1.87;;
4452;SDS011;2239;48.152;11.584;2023-03-22T00:21:02;5.73;;;2.53;;
4452;SDS011;2239;48.152;11.584;2023-03-22T00:23:28;4.80;;;2.20;;
4452;SDS011;2239;48.152;11.584;2023-03-22T00:25:54;3.63;;;2.00;;
4452;SDS011;2239;48.152;11.584;2023-03-22T00:28:20;3.87;;;1.50;;
4452;SDS011;2239;48.152;11.584;2023-03-22T00:30:53;2.17;;;1.40;;
4452;SDS011;2239;48.152;11.584;2023-03-22T00:33:20;6.57;;;2.23;;
4452;SDS011;2239;48.152;11.584;2023-03-22T00:35:52;5.97;;;2.60;;
4452;SDS011;2239;48.152;11.584;2023-03-22T00:38:21;2.77;;;1.67;;
4452;SDS011;2239;48.152;11.584;2023-03-22T00:40:46;2.60;;;1.50;;
4452;SDS011;2239;48.152;11.584;2023-03-22T00:43:12;2.37;;;1.57;;
4452;SDS011;2239;48.152;11.584;2023-03-22T00:45:38;4.40;;;1.50;;
4452;SDS011;2239;48.152;11.584;2023-03-22T00:48:05;9.60;;;2.00;;
4452;SDS011;2239;48.152;11.584;2023-03-22T00:50:32;2.77;;;1.80;;
4452;SDS011;2239;48.152;11.584;2023-03-22T00:52:58;3.33;;;1.43;;
4452;SDS011;2239;48.152;11.584;2023-03-22T00:55:23;2.13;;;1.43;;
4452;SDS011;2239;48.152;11.584;2023-03-22T00:57:49;2.60;;;1.70;;
4452;SDS011;2239;48.152;11.584;2023-03-22T01:00:15;5.30;;;2.20;;
4452;SDS011;2239;48.152;11.584;2023-03-22T01:02:41;4.93;;;1.80;;
4452;SDS011;2239;48.152;11.584;2023-03-22T01:05:07;3.20;;;1.47;;
4452;SDS011;2239;48.152;11.584;2023-03-22T01:07:39;2.73;;;1.60;;
4452;SDS011;2239;48.152;11.584;2023-03-22T01:10:09;2.43;;;1.43;;
4452;SDS011;2239;48.152;11.584;2023-03-22T01:12:36;5.60;;;1.80;;
4452;SDS011;2239;48.152;11.584;2023-03-22T01:15:03;4.00;;;1.93;;
4452;SDS011;2239;48.152;11.584;2023-03-22T01:17:29;3.60;;;1.77;;
4452;SDS011;2239;48.152;11.584;2023-03-22T01:19:55;3.40;;;2.13;;
4452;SDS011;2239;48.152;11.584;2023-03-22T01:22:21;2.47;;;1.57;;
4452;SDS011;2239;48.152;11.584;2023-03-22T01:24:47;3.20;;;1.20;;
4452;SDS011;2239;48.152;11.584;2023-03-22T01:27:13;4.13;;;1.50;;
4452;SDS011;2239;48.152;11.584;2023-03-22T01:29:39;4.80;;;2.10;;
4452;SDS011;2239;48.152;11.584;2023-03-22T01:32:05;4.13;;;1.70;;
4452;SDS011;2239;48.152;11.584;2023-03-22T01:34:30;3.37;;;2.00;;
4452;SDS011;2239;48.152;11.584;2023-03-22T01:36:56;2.53;;;1.30;;
4452;SDS011;2239;48.152;11.584;2023-03-22T01:39:21;2.90;;;1.50;;
4452;SDS011;2239;48.152;11.584;2023-03-22T01:41:47;3.53;;;1.83;;
4452;SDS011;2239;48.152;11.584;2023-03-22T01:44:16;2.47;;;1.17;;
4452;SDS011;2239;48.152;11.584;2023-03-22T01:46:45;2.70;;;1.57;;
4452;SDS011;2239;48.152;11.584;2023-03-22T01:49:29;2.03;;;1.63;;
4452;SDS011;2239;48.152;11.584;2023-03-22T01:52:01;2.03;;;1.23;;
4452;SDS011;2239;48.152;11.584;2023-03-22T01:54:34;3.63;;;1.90;;
4452;SDS011;2239;48.152;11.584;2023-03-22T01:57:06;4.50;;;2.10;;
4452;SDS011;2239;48.152;11.584;2023-03-22T01:59:33;6.27;;;2.13;;
4452;SDS011;2239;48.152;11.584;2023-03-22T02:01:59;3.27;;;1.63;;
4452;SDS011;2239;48.152;11.584;2023-03-22T02:04:26;2.17;;;1.00;;
4452;SDS011;2239;48.152;11.584;2023-03-22T02:06:58;4.70;;;1.73;;
4452;SDS011;2239;48.152;11.584;2023-03-22T02:09:26;4.20;;;1.80;;
4452;SDS011;2239;48.152;11.584;2023-03-22T02:22:46;2.40;;;1.60;;
4452;SDS011;2239;48.152;11.584;2023-03-22T02:25:35;2.70;;;1.87;;
4452;SDS011;2239;48.152;11.584;2023-03-22T02:31:23;4.40;;;1.80;;
4452;SDS011;2239;48.152;11.584;2023-03-22T02:41:10;1.80;;;1.10;;
4452;SDS011;2239;48.152;11.584;2023-03-22T02:43:33;3.80;;;1.40;;
4452;SDS011;2239;48.152;11.584;2023-03-22T02:46:09;2.00;;;1.20;;
4452;SDS011;2239;48.152;11.584;2023-03-22T02:51:27;4.60;;;1.93;;
4452;SDS011;2239;48.152;11.584;2023-03-22T02:56:50;2.80;;;1.50;;
4452;SDS011;2239;48.152;11.584;2023-03-22T02:59:20;5.27;;;1.87;;
4452;SDS011;2239;48.152;11.584;2023-03-22T03:01:52;4.07;;;1.40;;
4452;SDS011;2239;48.152;11.584;2023-03-22T03:04:22;1.10;;;1.00;;
4452;SDS011;2239;48.152;11.584;2023-03-22T03:06:51;4.53;;;1.30;;
4452;SDS011;2239;48.152;11.584;2023-03-22T03:09:20;6.60;;;1.37;;
4452;SDS011;2239;48.152;11.584;2023-03-22T03:11:47;2.60;;;1.80;;
4452;SDS011;2239;48.152;11.584;2023-03-22T03:14:32;2.77;;;1.20;;
4452;SDS011;2239;48.152;11.584;2023-03-22T03:30:31;2.40;;;1.30;;
4452;SDS011;2239;48.152;11.584;2023-03-22T03:33:07;4.27;;;1.77;;
4452;SDS011;2239;48.152;11.584;2023-03-22T03:35:42;3.07;;;1.70;;
4452;SDS011;2239;48.152;11.584;2023-03-22T03:38:15;1.83;;;1.70;;
4452;SDS011;2239;48.152;11.584;2023-03-22T03:40:44;5.80;;;1.73;;
4452;SDS011;2239;48.152;11.584;2023-03-22T03:43:16;5.97;;;1.90;;
4452;SDS011;2239;48.152;11.584;2023-03-22T03:45:43;1.90;;;1.67;;
4452;SDS011;2239;48.152;11.584;2023-03-22T03:48:17;1.93;;;1.70;;
4452;SDS011;2239;48.152;11.584;2023-03-22T03:50:45;2.03;;;1.23;;
4452;SDS011;2239;48.152;11.584;2023-03-22T03:53:14;2.70;;;1.67;;
4452;SDS011;2239;48.152;11.584;2023-03-22T03:55:39;3.77;;;1.70;;
4452;SDS011;2239;48.152;11.584;2023-03-22T03:58:05;4.23;;;1.90;;
4452;SDS011;2239;48.152;11.584;2023-03-22T04:00:33;1.60;;;1.30;;
4452;SDS011;2239;48.152;11.584;2023-03-22T04:02:58;3.47;;;1.60;;
4452;SDS011;2239;48.152;11.584;2023-03-22T04:05:24;1.07;;;0.97;;
4452;SDS011;2239;48.152;11.584;2023-03-22T04:07:49;2.77;;;1.40;;
4452;SDS011;2239;48.152;11.584;2023-03-22T04:10:18;3.10;;;1.53;;
4452;SDS011;2239;48.152;11.584;2023-03-22T04:12:43;3.90;;;1.30;;
4452;SDS011;2239;48.152;11.584;2023-03-22T04:15:09;2.83;;;1.50;;
4452;SDS011;2239;48.152;11.584;2023-03-22T04:17:36;3.97;;;1.60;;
4452;SDS011;2239;48.152;11.584;2023-03-22T04:20:03;1.70;;;1.20;;
4452;SDS011;2239;48.152;11.584;2023-03-22T04:22:30;2.70;;;1.63;;
4452;SDS011;2239;48.152;11.584;2023-03-22T04:24:59;3.60;;;2.20;;
4452;SDS011;2239;48.152;11.584;2023-03-22T04:27:25;2.93;;;0.93;;
4452;SDS011;2239;48.152;11.584;2023-03-22T04:29:51;8.93;;;2.17;;
4452;SDS011;2239;48.152;11.584;2023-03-22T04:32:18;2.17;;;1.43;;
4452;SDS011;2239;48.152;11.584;2023-03-22T04:34:49;4.50;;;1.77;;
4452;SDS011;2239;48.152;11.584;2023-03-22T04:37:15;3.13;;;1.23;;
4452;SDS011;2239;48.152;11.584;2023-03-22T04:39:41;1.93;;;1.30;;
4452;SDS011;2239;48.152;11.584;2023-03-22T04:42:07;1.57;;;1.07;;
4452;SDS011;2239;48.152;11.584;2023-03-22T04:44:33;3.00;;;1.07;;
4452;SDS011;2239;48.152;11.584;2023-03-22T04:46:59;1.47;;;1.03;;
4452;SDS011;2239;48.152;11.584;2023-03-22T04:49:24;1.73;;;1.20;;
4452;SDS011;2239;48.152;11.584;2023-03-22T04:51:51;3.53;;;1.27;;
4452;SDS011;2239;48.152;11.584;2023-03-22T04:54:20;3.00;;;1.37;;
4452;SDS011;2239;48.152;11.584;2023-03-22T04:56:47;1.23;;;0.90;;
4452;SDS011;2239;48.152;11.584;2023-03-22T04:59:12;1.10;;;0.80;;
4452;SDS011;2239;48.152;11.584;2023-03-22T05:01:38;1.30;;;0.70;;
4452;SDS011;2239;48.152;11.584;2023-03-22T05:04:05;2.97;;;1.27;;
4452;SDS011;2239;48.152;11.584;2023-03-22T05:06:30;2.83;;;1.77;;
4452;SDS011;2239;48.152;11.584;2023-03-22T05:08:57;1.73;;;0.90;;
4452;SDS011;2239;48.152;11.584;2023-03-22T05:11:23;1.63;;;1.10;;
4452;SDS011;2239;48.152;11.584;2023-03-22T05:13:51;2.77;;;1.03;;
4452;SDS011;2239;48.152;11.584;2023-03-22T05:16:18;0.93;;;0.60;;
4452;SDS011;2239;48.152;11.584;2023-03-22T05:18:44;1.90;;;0.77;;
4452;SDS011;2239;48.152;11.584;2023-03-22T05:21:14;1.73;;;0.80;;
4452;SDS011;2239;48.152;11.584;2023-03-22T05:23:41;2.70;;;1.13;;
4452;SDS011;2239;48.152;11.584;2023-03-22T05:26:09;1.00;;;0.90;;
4452;SDS011;2239;48.152;11.584;2023-03-22T05:28:35;4.53;;;1.27;;
4452;SDS011;2239;48.152;11.584;2023-03-22T05:31:01;1.80;;;1.07;;
4452;SDS011;2239;48.152;11.584;2023-03-22T05:33:27;0.80;;;0.67;;
4452;SDS011;2239;48.152;11.584;2023-03-22T05:35:53;1.67;;;1.17;;
4452;SDS011;2239;48.152;11.584;2023-03-22T05:38:20;1.03;;;0.90;;
4452;SDS011;2239;48.152;11.584;2023-03-22T05:40:46;1.00;;;0.80;;
4452;SDS011;2239;48.152;11.584;2023-03-22T05:43:13;1.13;;;0.90;;
4452;SDS011;2239;48.152;11.584;2023-03-22T05:45:39;5.27;;;1.07;;
4452;SDS011;2239;48.152;11.584;2023-03-22T05:48:05;1.37;;;0.80;;
4452;SDS011;2239;48.152;11.584;2023-03-22T05:50:31;1.70;;;0.97;;
4452;SDS011;2239;48.152;11.584;2023-03-22T05:52:58;1.80;;;1.13;;
4452;SDS011;2239;48.152;11.584;2023-03-22T05:55:23;3.17;;;1.60;;
4452;SDS011;2239;48.152;11.584;2023-03-22T05:57:50;5.50;;;2.03;;
4452;SDS011;2239;48.152;11.584;2023-03-22T06:00:18;3.57;;;1.40;;
4452;SDS011;2239;48.152;11.584;2023-03-22T06:02:45;2.70;;;1.23;;
4452;SDS011;2239;48.152;11.584;2023-03-22T06:05:13;1.97;;;0.97;;
4452;SDS011;2239;48.152;11.584;2023-03-22T06:07:40;1.20;;;0.87;;
4452;SDS011;2239;48.152;11.584;2023-03-22T06:10:07;2.60;;;1.40;;
4452;SDS011;2239;48.152;11.584;2023-03-22T06:12:35;1.77;;;1.20;;
4452;SDS011;2239;48.152;11.584;2023-03-22T06:15:00;1.47;;;1.03;;
4452;SDS011;2239;48.152;11.584;2023-03-22T06:17:26;1.57;;;1.10;;
4452;SDS011;2239;48.152;11.584;2023-03-22T06:19:52;0.93;;;0.83;;
4452;SDS011;2239;48.152;11.584;2023-03-22T06:22:18;2.20;;;1.07;;
4452;SDS011;2239;48.152;11.584;2023-03-22T06:24:44;1.90;;;1.20;;
4452;SDS011;2239;48.152;11.584;2023-03-22T06:27:11;2.03;;;1.33;;
4452;SDS011;2239;48.152;11.584;2023-03-22T06:29:37;1.83;;;1.03;;
4452;SDS011;2239;48.152;11.584;2023-03-22T06:32:03;1.47;;;1.13;;
4452;SDS011;2239;48.152;11.584;2023-03-22T06:34:28;3.20;;;1.10;;
4452;SDS011;2239;48.152;11.584;2023-03-22T06:36:54;1.57;;;1.20;;
4452;SDS011;2239;48.152;11.584;2023-03-22T06:39:20;3.47;;;1.27;;
4452;SDS011;2239;48.152;11.584;2023-03-22T06:41:46;2.83;;;1.10;;
4452;SDS011;2239;48.152;11.584;2023-03-22T06:44:12;2.67;;;1.40;;
4452;SDS011;2239;48.152;11.584;2023-03-22T06:46:38;2.43;;;1.47;;
4452;SDS011;2239;48.152;11.584;2023-03-22T06:49:05;2.00;;;1.00;;
4452;SDS011;2239;48.152;11.584;2023-03-22T06:51:31;1.47;;;1.30;;
4452;SDS011;2239;48.152;11.584;2023-03-22T06:53:57;3.70;;;1.03;;
4452;SDS011;2239;48.152;11.584;2023-03-22T06:56:23;3.93;;;1.37;;
4452;SDS011;2239;48.152;11.584;2023-03-22T06:58:48;3.57;;;0.97;;
4452;SDS011;2239;48.152;11.584;2023-03-22T07:01:16;2.83;;;1.70;;
4452;SDS011;2239;48.152;11.584;2023-03-22T07:03:42;3.33;;;1.33;;
4452;SDS011;2239;48.152;11.584;2023-03-22T07:06:08;1.57;;;1.13;;
4452;SDS011;2239;48.152;11.584;2023-03-22T07:08:34;2.80;;;1.50;;
4452;SDS011;2239;48.152;11.584;2023-03-22T07:11:01;1.27;;;0.80;;
4452;SDS011;2239;48.152;11.584;2023-03-22T07:13:27;3.33;;;1.30;;
4452;SDS011;2239;48.152;11.584;2023-03-22T07:15:56;2.70;;;1.30;;
4452;SDS011;2239;48.152;11.584;2023-03-22T07:18:26;1.57;;;1.27;;
4452;SDS011;2239;48.152;11.584;2023-03-22T07:20:53;2.23;;;1.10;;
4452;SDS011;2239;48.152;11.584;2023-03-22T07:23:18;1.10;;;1.00;;
4452;SDS011;2239;48.152;11.584;2023-03-22T07:25:44;5.70;;;1.30;;
4452;SDS011;2239;48.152;11.584;2023-03-22T07:28:11;10.60;;;1.63;;
4452;SDS011;2239;48.152;11.584;2023-03-22T07:30:37;1.80;;;0.90;;
4452;SDS011;2239;48.152;11.584;2023-03-22T07:33:03;1.93;;;1.40;;
4452;SDS011;2239;48.152;11.584;2023-03-22T07:35:30;2.57;;;1.57;;
4452;SDS011;2239;48.152;11.584;2023-03-22T07:37:56;1.77;;;1.20;;
4452;SDS011;2239;48.152;11.584;2023-03-22T07:40:22;2.20;;;1.43;;
4452;SDS011;2239;48.152;11.584;2023-03-22T07:42:48;1.60;;;1.00;;
4452;SDS011;2239;48.152;11.584;2023-03-22T07:45:14;2.97;;;1.20;;
4452;SDS011;2239;48.152;11.584;2023-03-22T07:47:40;6.20;;;1.80;;
4452;SDS011;2239;48.152;11.584;2023-03-22T07:50:07;2.00;;;1.10;;
4452;SDS011;2239;48.152;11.584;2023-03-22T07:52:33;2.30;;;1.30;;
4452;SDS011;2239;48.152;11.584;2023-03-22T07:54:59;1.60;;;1.23;;
4452;SDS011;2239;48.152;11.584;2023-03-22T07:57:25;3.73;;;1.63;;
4452;SDS011;2239;48.152;11.584;2023-03-22T07:59:50;7.20;;;1.40;;
4452;SDS011;2239;48.152;11.584;2023-03-22T08:02:16;3.03;;;1.80;;
4452;SDS011;2239;48.152;11.584;2023-03-22T08:04:41;3.33;;;1.40;;
4452;SDS011;2239;48.152;11.584;2023-03-22T08:07:07;2.47;;;1.17;;
4452;SDS011;2239;48.152;11.584;2023-03-22T08:09:34;2.30;;;1.53;;
4452;SDS011;2239;48.152;11.584;2023-03-22T08:12:00;4.80;;;1.10;;
4452;SDS011;2239;48.152;11.584;2023-03-22T08:14:26;3.77;;;1.47;;
4452;SDS011;2239;48.152;11.584;2023-03-22T08:16:51;2.50;;;1.10;;
4452;SDS011;2239;48.152;11.584;2023-03-22T08:19:17;2.07;;;1.23;;
4452;SDS011;2239;48.152;11.584;2023-03-22T08:21:42;1.97;;;1.40;;
4452;SDS011;2239;48.152;11.584;2023-03-22T08:24:08;2.93;;;1.50;;
4452;SDS011;2239;48.152;11.584;2023-03-22T08:26:33;3.87;;;1.80;;
4452;SDS011;2239;48.152;11.584;2023-03-22T08:28:59;2.63;;;1.60;;
4452;SDS011;2239;48.152;11.584;2023-03-22T08:31:25;1.83;;;1.07;;
4452;SDS011;2239;48.152;11.584;2023-03-22T08:33:52;4.77;;;1.90;;
4452;SDS011;2239;48.152;11.584;2023-03-22T08:36:19;4.37;;;1.90;;
4452;SDS011;2239;48.152;11.584;2023-03-22T08:38:47;3.50;;;1.70;;
4452;SDS011;2239;48.152;11.584;2023-03-22T08:41:13;4.00;;;2.03;;
4452;SDS011;2239;48.152;11.584;2023-03-22T08:43:39;2.47;;;1.30;;
4452;SDS011;2239;48.152;11.584;2023-03-22T08:46:06;3.17;;;1.70;;
4452;SDS011;2239;48.152;11.584;2023-03-22T08:48:32;3.60;;;1.70;;
4452;SDS011;2239;48.152;11.584;2023-03-22T08:50:59;3.30;;;1.90;;
4452;SDS011;2239;48.152;11.584;2023-03-22T08:53:26;4.40;;;1.83;;
4452;SDS011;2239;48.152;11.584;2023-03-22T08:55:52;3.57;;;2.07;;
4452;SDS011;2239;48.152;11.584;2023-03-22T08:58:18;4.83;;;2.10;;
4452;SDS011;2239;48.152;11.584;2023-03-22T09:00:44;4.93;;;1.87;;
4452;SDS011;2239;48.152;11.584;2023-03-22T09:03:10;3.80;;;1.90;;
4452;SDS011;2239;48.152;11.584;2023-03-22T09:05:37;3.93;;;1.70;;
4452;SDS011;2239;48.152;11.584;2023-03-22T09:08:02;2.37;;;1.80;;
4452;SDS011;2239;48.152;11.584;2023-03-22T09:10:29;5.50;;;1.70;;
4452;SDS011;2239;48.152;11.584;2023-03-22T09:12:56;3.30;;;1.70;;
4452;SDS011;2239;48.152;11.584;2023-03-22T09:15:21;2.57;;;1.47;;
4452;SDS011;2239;48.152;11.584;2023-03-22T09:17:47;3.47;;;1.70;;
4452;SDS011;2239;48.152;11.584;2023-03-22T09:20:12;3.17;;;1.80;;
4452;SDS011;2239;48.152;11.584;2023-03-22T09:22:38;4.33;;;1.60;;
4452;SDS011;2239;48.152;11.584;2023-03-22T09:25:04;2.87;;;1.60;;
4452;SDS011;2239;48.152;11.584;2023-03-22T09:27:30;3.30;;;1.80;;
4452;SDS011;2239;48.152;11.584;2023-03-22T09:29:55;2.20;;;1.60;;
4452;SDS011;2239;48.152;11.584;2023-03-22T09:32:21;3.87;;;1.47;;
4452;SDS011;2239;48.152;11.584;2023-03-22T09:34:47;3.30;;;1.40;;
4452;SDS011;2239;48.152;11.584;2023-03-22T09:37:12;2.73;;;1.50;;
4452;SDS011;2239;48.152;11.584;2023-03-22T09:39:38;3.13;;;1.60;;
4452;SDS011;2239;48.152;11.584;2023-03-22T09:42:09;3.27;;;1.33;;
4452;SDS011;2239;48.152;11.584;2023-03-22T09:44:51;1.90;;;1.27;;
4452;SDS011;2239;48.152;11.584;2023-03-22T09:47:18;3.03;;;1.80;;
4452;SDS011;2239;48.152;11.584;2023-03-22T09:49:53;4.73;;;1.77;;
4452;SDS011;2239;48.152;11.584;2023-03-22T09:52:26;2.13;;;1.40;;
4452;SDS011;2239;48.152;11.584;2023-03-22T09:54:53;1.83;;;1.27;;
4452;SDS011;2239;48.152;11.584;2023-03-22T09:59:58;2.90;;;1.57;;
4452;SDS011;2239;48.152;11.584;2023-03-22T10:10:50;1.77;;;1.20;;
4452;SDS011;2239;48.152;11.584;2023-03-22T10:16:23;2.00;;;1.23;;
4452;SDS011;2239;48.152;11.584;2023-03-22T10:18:52;3.10;;;1.43;;
4452;SDS011;2239;48.152;11.584;2023-03-22T10:21:25;2.97;;;1.57;;
4452;SDS011;2239;48.152;11.584;2023-03-22T10:23:53;2.50;;;1.60;;
4452;SDS011;2239;48.152;11.584;2023-03-22T10:26:44;2.63;;;1.40;;
4452;SDS011;2239;48.152;11.584;2023-03-22T10:29:22;1.87;;;1.50;;
4452;SDS011;2239;48.152;11.584;2023-03-22T10:31:54;3.57;;;1.20;;
4452;SDS011;2239;48.152;11.584;2023-03-22T10:34:25;4.40;;;1.20;;
4452;SDS011;2239;48.152;11.584;2023-03-22T10:36:55;1.97;;;1.57;;
4452;SDS011;2239;48.152;11.584;2023-03-22T10:41:51;2.20;;;1.03;;
4452;SDS011;2239;48.152;11.584;2023-03-22T10:44:21;1.00;;;0.90;;
4452;SDS011;2239;48.152;11.584;2023-03-22T10:46:49;1.37;;;1.07;;
4452;SDS011;2239;48.152;11.584;2023-03-22T10:49:21;1.37;;;1.13;;
4452;SDS011;2239;48.152;11.584;2023-03-22T10:55:00;0.80;;;0.80;;
4452;SDS011;2239;48.152;11.584;2023-03-22T10:57:27;1.20;;;0.90;;
4452;SDS011;2239;48.152;11.584;2023-03-22T10:59:56;3.33;;;1.00;;
4452;SDS011;2239;48.152;11.584;2023-03-22T11:02:26;1.30;;;1.07;;
4452;SDS011;2239;48.152;11.584;2023-03-22T11:04:55;2.30;;;1.20;;
4452;SDS011;2239;48.152;11.584;2023-03-22T11:07:33;1.47;;;1.23;;
4452;SDS011;2239;48.152;11.584;2023-03-22T11:12:57;1.60;;;1.13;;
4452;SDS011;2239;48.152;11.584;2023-03-22T11:15:37;1.43;;;1.13;;
4452;SDS011;2239;48.152;11.584;2023-03-22T11:18:11;3.23;;;1.30;;
4452;SDS011;2239;48.152;11.584;2023-03-22T11:20:40;1.70;;;0.97;;
4452;SDS011;2239;48.152;11.584;2023-03-22T11:23:15;2.27;;;1.00;;
4452;SDS011;2239;48.152;11.584;2023-03-22T11:25:45;1.00;;;0.80;;
4452;SDS011;2239;48.152;11.584;2023-03-22T11:28:26;2.00;;;0.97;;
4452;SDS011;2239;48.152;11.584;2023-03-22T11:31:14;1.53;;;1.10;;
4452;SDS011;2239;48.152;11.584;2023-03-22T11:34:10;2.73;;;1.30;;
4452;SDS011;2239;48.152;11.584;2023-03-22T11:36:45;1.47;;;1.00;;
4452;SDS011;2239;48.152;11.584;2023-03-22T11:39:18;1.80;;;1.10;;
4452;SDS011;2239;48.152;11.584;2023-03-22T11:41:45;1.20;;;0.90;;
4452;SDS011;2239;48.152;11.584;2023-03-22T11:44:12;2.40;;;1.20;;
4452;SDS011;2239;48.152;11.584;2023-03-22T11:46:48;1.40;;;1.13;;
4452;SDS011;2239;48.152;11.584;2023-03-22T11:49:17;1.43;;;1.10;;
4452;SDS011;2239;48.152;11.584;2023-03-22T11:51:42;0.97;;;0.80;;
4452;SDS011;2239;48.152;11.584;2023-03-22T11:54:14;2.57;;;1.40;;
4452;SDS011;2239;48.152;11.584;2023-03-22T11:56:45;1.67;;;1.17;;
4452;SDS011;2239;48.152;11.584;2023-03-22T11:59:13;1.40;;;0.97;;
4452;SDS011;2239;48.152;11.584;2023-03-22T12:01:45;2.43;;;1.10;;
4452;SDS011;2239;48.152;11.584;2023-03-22T12:04:17;1.57;;;1.30;;
4452;SDS011;2239;48.152;11.584;2023-03-22T12:06:46;3.40;;;1.43;;
4452;SDS011;2239;48.152;11.584;2023-03-22T12:12:00;2.27;;;1.03;;
4452;SDS011;2239;48.152;11.584;2023-03-22T12:14:32;1.60;;;1.30;;
4452;SDS011;2239;48.152;11.584;2023-03-22T12:17:27;1.43;;;1.00;;
4452;SDS011;2239;48.152;11.584;2023-03-22T12:22:44;0.90;;;0.80;;
4452;SDS011;2239;48.152;11.584;2023-03-22T12:25:18;1.60;;;1.10;;
4452;SDS011;2239;48.152;11.584;2023-03-22T12:27:53;1.00;;;0.83;;
4452;SDS011;2239;48.152;11.584;2023-03-22T12:30:24;2.43;;;1.40;;
4452;SDS011;2239;48.152;11.584;2023-03-22T12:35:41;1.77;;;1.13;;
4452;SDS011;2239;48.152;11.584;2023-03-22T12:38:21;1.67;;;1.10;;
4452;SDS011;2239;48.152;11.584;2023-03-22T12:40:52;1.40;;;0.80;;
4452;SDS011;2239;48.152;11.584;2023-03-22T12:43:33;1.37;;;1.03;;
4452;SDS011;2239;48.152;11.584;2023-03-22T12:46:32;1.27;;;0.87;;
4452;SDS011;2239;48.152;11.584;2023-03-22T12:49:37;2.53;;;1.10;;
4452;SDS011;2239;48.152;11.584;2023-03-22T12:54:51;2.23;;;1.17;;
4452;SDS011;2239;48.152;11.584;2023-03-22T12:57:17;2.30;;;1.33;;
4452;SDS011;2239;48.152;11.584;2023-03-22T12:59:49;1.63;;;0.90;;
4452;SDS011;2239;48.152;11.584;2023-03-22T13:02:27;1.50;;;1.03;;
4452;SDS011;2239;48.152;11.584;2023-03-22T13:04:57;1.47;;;1.00;;
4452;SDS011;2239;48.152;11.584;2023-03-22T13:16:01;1.73;;;1.00;;
4452;SDS011;2239;48.152;11.584;2023-03-22T13:21:28;1.80;;;1.10;;
4452;SDS011;2239;48.152;11.584;2023-03-22T13:26:36;1.60;;;1.17;;
4452;SDS011;2239;48.152;11.584;2023-03-22T13:29:15;1.97;;;1.20;;
4452;SDS011;2239;48.152;11.584;2023-03-22T13:34:57;2.00;;;1.20;;
4452;SDS011;2239;48.152;11.584;2023-03-22T13:37:28;1.60;;;1.03;;
4452;SDS011;2239;48.152;11.584;2023-03-22T13:40:11;1.47;;;1.37;;
4452;SDS011;2239;48.152;11.584;2023-03-22T13:43:20;3.43;;;1.00;;
4452;SDS011;2239;48.152;11.584;2023-03-22T13:48:54;1.30;;;0.90;;
4452;SDS011;2239;48.152;11.584;2023-03-22T13:51:37;1.07;;;0.80;;
4452;SDS011;2239;48.152;11.584;2023-03-22T13:56:58;1.83;;;0.90;;
4452;SDS011;2239;48.152;11.584;2023-03-22T14:04:47;0.97;;;0.80;;
4452;SDS011;2239;48.152;11.584;2023-03-22T14:09:49;0.77;;;0.77;;
4452;SDS011;2239;48.152;11.584;2023-03-22T14:12:19;1.33;;;1.00;;
4452;SDS011;2239;48.152;11.584;2023-03-22T14:14:56;0.90;;;0.60;;
4452;SDS011;2239;48.152;11.584;2023-03-22T14:20:21;1.10;;;0.70;;
4452;SDS011;2239;48.152;11.584;2023-03-22T14:22:59;1.20;;;0.70;;
4452;SDS011;2239;48.152;11.584;2023-03-22T14:25:32;1.37;;;0.70;;
4452;SDS011;2239;48.152;11.584;2023-03-22T14:28:00;1.33;;;0.87;;
4452;SDS011;2239;48.152;11.584;2023-03-22T14:32:55;0.87;;;0.60;;
4452;SDS011;2239;48.152;11.584;2023-03-22T14:35:35;1.30;;;0.60;;
4452;SDS011;2239;48.152;11.584;2023-03-22T14:38:04;0.90;;;0.70;;
4452;SDS011;2239;48.152;11.584;2023-03-22T14:40:34;7.20;;;0.80;;
4452;SDS011;2239;48.152;11.584;2023-03-22T14:45:42;0.90;;;0.53;;
4452;SDS011;2239;48.152;11.584;2023-03-22T14:48:12;0.70;;;0.60;;
4452;SDS011;2239;48.152;11.584;2023-03-22T14:50:47;2.00;;;1.03;;
4452;SDS011;2239;48.152;11.584;2023-03-22T14:53:15;1.13;;;0.70;;
4452;SDS011;2239;48.152;11.584;2023-03-22T14:55:43;1.67;;;0.70;;
4452;SDS011;2239;48.152;11.584;2023-03-22T14:58:14;0.87;;;0.80;;
4452;SDS011;2239;48.152;11.584;2023-03-22T15:00:40;1.20;;;0.63;;
4452;SDS011;2239;48.152;11.584;2023-03-22T15:03:07;1.23;;;1.10;;
4452;SDS011;2239;48.152;11.584;2023-03-22T15:05:38;1.30;;;0.80;;
4452;SDS011;2239;48.152;11.584;2023-03-22T15:10:41;1.90;;;0.70;;
4452;SDS011;2239;48.152;11.584;2023-03-22T15:13:09;1.40;;;0.83;;
4452;SDS011;2239;48.152;11.584;2023-03-22T15:15:36;0.73;;;0.60;;
4452;SDS011;2239;48.152;11.584;2023-03-22T15:18:04;2.50;;;0.77;;
4452;SDS011;2239;48.152;11.584;2023-03-22T15:20:35;1.63;;;0.80;;
4452;SDS011;2239;48.152;11.584;2023-03-22T15:23:12;2.10;;;0.90;;
4452;SDS011;2239;48.152;11.584;2023-03-22T15:25:38;2.20;;;1.00;;
4452;SDS011;2239;48.152;11.584;2023-03-22T15:28:07;1.27;;;0.60;;
4452;SDS011;2239;48.152;11.584;2023-03-22T15:30:37;0.80;;;0.60;;
4452;SDS011;2239;48.152;11.584;2023-03-22T15:33:14;0.80;;;0.70;;
4452;SDS011;2239;48.152;11.584;2023-03-22T15:35:58;1.10;;;0.80;;
4452;SDS011;2239;48.152;11.584;2023-03-22T15:38:31;1.33;;;0.70;;
4452;SDS011;2239;48.152;11.584;2023-03-22T15:41:01;1.27;;;0.80;;
4452;SDS011;2239;48.152;11.584;2023-03-22T15:43:30;1.50;;;0.90;;
4452;SDS011;2239;48.152;11.584;2023-03-22T15:46:10;1.20;;;0.70;;
4452;SDS011;2239;48.152;11.584;2023-03-22T15:48:44;1.40;;;0.97;;
4452;SDS011;2239;48.152;11.584;2023-03-22T15:51:40;0.80;;;0.70;;
4452;SDS011;2239;48.152;11.584;2023-03-22T15:56:46;1.00;;;0.70;;
4452;SDS011;2239;48.152;11.584;2023-03-22T15:59:23;1.80;;;0.80;;
4452;SDS011;2239;48.152;11.584;2023-03-22T16:01:54;1.07;;;0.83;;
4452;SDS011;2239;48.152;11.584;2023-03-22T16:04:22;1.20;;;1.00;;
4452;SDS011;2239;48.152;11.584;2023-03-22T16:06:55;1.67;;;1.10;;
4452;SDS011;2239;48.152;11.584;2023-03-22T16:09:20;1.10;;;0.90;;
4452;SDS011;2239;48.152;11.584;2023-03-22T16:11:46;3.30;;;0.80;;
4452;SDS011;2239;48.152;11.584;2023-03-22T16:14:12;0.80;;;0.60;;
4452;SDS011;2239;48.152;11.584;2023-03-22T16:16:39;0.80;;;0.60;;
4452;SDS011;2239;48.152;11.584;2023-03-22T16:19:06;1.30;;;0.70;;
4452;SDS011;2239;48.152;11.584;2023-03-22T16:21:32;1.40;;;0.70;;
4452;SDS011;2239;48.152;11.584;2023-03-22T16:23:59;1.00;;;0.90;;
4452;SDS011;2239;48.152;11.584;2023-03-22T16:26:26;1.80;;;0.70;;
4452;SDS011;2239;48.152;11.584;2023-03-22T16:28:52;1.10;;;0.77;;
4452;SDS011;2239;48.152;11.584;2023-03-22T16:31:18;1.00;;;0.67;;
4452;SDS011;2239;48.152;11.584;2023-03-22T16:33:45;2.33;;;0.90;;
4452;SDS011;2239;48.152;11.584;2023-03-22T16:36:12;1.33;;;0.93;;
4452;SDS011;2239;48.152;11.584;2023-03-22T16:38:39;1.23;;;0.80;;
4452;SDS011;2239;48.152;11.584;2023-03-22T16:41:06;1.77;;;0.80;;
4452;SDS011;2239;48.152;11.584;2023-03-22T16:43:40;1.63;;;0.77;;
4452;SDS011;2239;48.152;11.584;2023-03-22T16:46:08;1.70;;;1.00;;
4452;SDS011;2239;48.152;11.584;2023-03-22T16:48:36;2.50;;;0.80;;
4452;SDS011;2239;48.152;11.584;2023-03-22T16:51:02;1.73;;;1.10;;
4452;SDS011;2239;48.152;11.584;2023-03-22T16:53:28;1.40;;;0.80;;
4452;SDS011;2239;48.152;11.584;2023-03-22T16:55:53;1.80;;;0.97;;
4452;SDS011;2239;48.152;11.584;2023-03-22T16:58:19;2.03;;;1.00;;
4452;SDS011;2239;48.152;11.584;2023-03-22T17:00:45;2.13;;;1.30;;
4452;SDS011;2239;48.152;11.584;2023-03-22T17:03:12;1.40;;;1.00;;
4452;SDS011;2239;48.152;11.584;2023-03-22T17:05:41;1.20;;;1.00;;
4452;SDS011;2239;48.152;11.584;2023-03-22T17:08:17;5.27;;;1.10;;
4452;SDS011;2239;48.152;11.584;2023-03-22T17:10:44;3.20;;;1.10;;